Impacts METAR Board
IDs:

KDFW - Dallas-Ft Worth Intl, TX, US

Updated at: 0100 UTC 18 Aug 2018
Potential Impact None Slight Moderate High
Time 17/13Z 17/14Z 17/15Z 17/16Z 17/17Z 17/18Z 17/19Z 17/20Z 17/21Z 17/22Z 17/23Z 18/00Z 18/01Z
Temp82 84 86 86 87 91 94 97 98 98 98 97 94
Dewpt68 69 69 69 69 69 70 69 68 67 66 65 64
Altim30.02 30.03 30.05 30.03 30.05 30.03 30.02 29.99 29.97 29.94 29.93 29.93 29.95
VIS10 10 10 10 10 10 10 10 10 10 10 10 10
CIG300 300 85 180 180 -- -- -- -- -- -- -- --
CoverBKNBKNBKNBKNBKNSCTSCTFEWFEWFEWFEWFEWSCT
FltCatVFRVFRVFRVFRVFRVFRVFRVFRVFRVFRVFRVFRVFR
WX--------------------------
WDir2102002202400200190210180180170170210
WSpd11 10 11 10 0 10 5 8 12 8 10 8 8
WGst-- -- -- -- -- -- 15 -- -- -- -- -- --
Raw hourly METARs
KDFW 171253Z 21011KT 10SM FEW085 SCT180 BKN300 28/20 A3002 RMK AO2 SLP156 SHRA DSNT NW T02780200
KDFW 171353Z 20010KT 10SM FEW080 SCT180 BKN300 29/21 A3003 RMK AO2 SLP158 SHRA DSNT NW T02890206
KDFW 171453Z 22011KT 10SM BKN085 BKN180 BKN300 30/21 A3005 RMK AO2 SLP164 SHRA DSNT NW T03000206 53010
KDFW 171553Z 24010KT 10SM SCT080 BKN180 BKN300 30/21 A3003 RMK AO2 SLP160 SHRA NW-N T03000206
KDFW 171653Z 00000KT 10SM SCT080 BKN180 BKN300 31/21 A3005 RMK AO2 SLP164 VIRGA ALQDS T03060206
KDFW 171753Z 20010KT 10SM FEW080 FEW180 SCT300 33/21 A3003 RMK AO2 SLP158 T03280206 10333 20267 58005
KDFW 171853Z 19005G15KT 10SM FEW090 SCT180 SCT300 34/21 A3002 RMK AO2 SLP153 T03440211
KDFW 171953Z 21008KT 10SM FEW050 FEW180 FEW300 36/21 A2999 RMK AO2 SLP145 T03610206
KDFW 172053Z 18012KT 10SM FEW050 FEW250 37/20 A2997 RMK AO2 SLP136 CB DSNT W-NW STNRY T03670200 58021
KDFW 172153Z 18008KT 10SM FEW050 FEW250 37/19 A2994 RMK AO2 SLP128 CB DSNT W-NW STNRY T03670194
KDFW 172253Z 17010KT 10SM FEW075 FEW250 37/19 A2993 RMK AO2 SLP123 CB DSNT W-N MOV SE T03670189
KDFW 172353Z 17008KT 10SM FEW075 FEW250 36/18 A2993 RMK AO2 SLP123 CB DSNT W-N MOV SE T03610183 10372 20328 55013
KDFW 180053Z 21008KT 10SM FEW075 SCT250 34/18 A2995 RMK AO2 SLP130 CB DSNT W-N MOV S T03440178



Page loaded:  01:25 UTC  |   06:25 PM Pacific  |   07:25 PM Mountain  |   08:25 PM Central  |   09:25 PM Eastern

 

ADVISORIES

FORECASTS

FORECASTS

OBSERVATIONS

USER TOOLS

ABOUT US